Time;durP1;ratioP1;P1;durP2;ratioP2;P2;SDS_P1;SDS_P2;PMS_P1;PMS_P2;Temp;Humidity;BMP_temperature;BMP_pressure;BME280_temperature;BME280_humidity;BME280_pressure;Samples;Min_cycle;Max_cycle;Signal;HPM_P1;HPM_P2
2022/10/24 00:00:06;;;;;;;0.10;0.10;;;14.00;99.90;;;;;;5062874;28;20211;-81
2022/10/24 00:02:32;;;;;;;0.10;0.10;;;14.00;99.90;;;;;;5071896;28;20208;-81
2022/10/24 00:04:57;;;;;;;0.10;0.10;;;14.00;99.90;;;;;;5057011;28;20214;-81
2022/10/24 00:07:23;;;;;;;0.00;0.00;;;14.10;99.90;;;;;;5062103;28;20241;-81
2022/10/24 00:09:49;;;;;;;0.10;0.10;;;14.00;99.90;;;;;;5062308;28;20192;-81
2022/10/24 00:12:17;;;;;;;0.10;0.10;;;14.10;99.90;;;;;;5062620;28;20209;-81
2022/10/24 00:14:42;;;;;;;0.00;0.00;;;14.00;99.90;;;;;;5065070;28;20749;-82
2022/10/24 00:17:08;;;;;;;0.10;0.10;;;14.00;99.90;;;;;;5060990;28;20186;-82
2022/10/24 00:19:33;;;;;;;0.10;0.10;;;13.90;99.90;;;;;;5061819;28;20186;-81
2022/10/24 00:21:59;;;;;;;0.10;0.10;;;13.90;99.90;;;;;;5062071;28;21196;-82
2022/10/24 00:24:24;;;;;;;0.10;0.10;;;13.80;99.90;;;;;;5061180;28;20763;-81
2022/10/24 00:26:51;;;;;;;0.10;0.10;;;13.80;99.90;;;;;;5063544;28;20197;-81
2022/10/24 00:29:16;;;;;;;0.10;0.10;;;13.70;99.90;;;;;;5060327;28;20182;-81
2022/10/24 00:31:42;;;;;;;0.10;0.10;;;13.80;99.90;;;;;;5061210;28;20744;-81
2022/10/24 00:34:08;;;;;;;0.10;0.10;;;13.70;99.90;;;;;;5061822;28;20202;-81
2022/10/24 00:36:33;;;;;;;0.00;0.00;;;13.70;99.90;;;;;;5061679;28;20185;-81
2022/10/24 00:38:59;;;;;;;0.10;0.10;;;13.60;99.90;;;;;;5061877;28;20639;-80
2022/10/24 00:41:28;;;;;;;0.10;0.10;;;13.60;99.90;;;;;;5071850;28;20259;-81
2022/10/24 00:44:23;;;;;;;0.10;0.10;;;13.60;99.90;;;;;;5062748;28;20187;-81
2022/10/24 00:47:09;;;;;;;0.10;0.10;;;13.50;99.90;;;;;;5061192;28;20210;-82
2022/10/24 00:49:59;;;;;;;0.10;0.10;;;13.60;99.90;;;;;;5061605;28;20231;-79
2022/10/24 00:52:29;;;;;;;0.10;0.10;;;13.60;99.90;;;;;;5067962;28;21236;-78
2022/10/24 00:54:56;;;;;;;0.10;0.10;;;13.60;99.90;;;;;;5069520;28;20183;-78
2022/10/24 00:57:38;;;;;;;0.10;0.10;;;13.50;99.90;;;;;;5060025;28;20197;-79
2022/10/24 01:00:12;;;;;;;0.10;0.10;;;13.40;99.90;;;;;;5059593;28;20188;-79
2022/10/24 01:02:38;;;;;;;0.10;0.10;;;13.40;99.90;;;;;;5058097;28;20214;-79
2022/10/24 01:05:05;;;;;;;0.10;0.10;;;13.40;99.90;;;;;;5076094;28;20229;-78
2022/10/24 01:07:46;;;;;;;0.10;0.10;;;13.40;99.90;;;;;;5059486;28;20555;-78
2022/10/24 01:10:42;;;;;;;0.00;0.00;;;13.40;99.90;;;;;;5060278;28;20189;-79
2022/10/24 01:13:16;;;;;;;0.10;0.10;;;13.30;99.90;;;;;;5060552;28;20184;-78
2022/10/24 01:15:50;;;;;;;0.10;0.10;;;13.30;99.90;;;;;;5070789;28;20184;-79
2022/10/24 01:18:15;;;;;;;0.10;0.10;;;13.30;99.90;;;;;;5058656;28;20667;-81
2022/10/24 01:21:06;;;;;;;0.10;0.10;;;13.20;99.90;;;;;;5075454;28;20232;-81
2022/10/24 01:23:43;;;;;;;0.10;0.10;;;13.30;99.90;;;;;;5060133;28;20254;-80
2022/10/24 01:26:37;;;;;;;0.03;0.03;;;13.30;99.90;;;;;;5059218;28;20176;-80
2022/10/24 01:29:38;;;;;;;0.10;0.10;;;13.30;99.90;;;;;;5061869;28;20182;-81
2022/10/24 01:32:32;;;;;;;0.10;0.10;;;13.30;99.90;;;;;;5060092;28;20614;-81
2022/10/24 01:35:22;;;;;;;0.10;0.10;;;13.30;99.90;;;;;;5070615;28;20224;-81
2022/10/24 01:38:07;;;;;;;0.10;0.10;;;13.30;99.90;;;;;;5061277;28;20188;-81
2022/10/24 01:40:50;;;;;;;0.10;0.10;;;13.30;99.90;;;;;;5068807;28;20618;-81
2022/10/24 01:43:19;;;;;;;0.10;0.10;;;13.20;99.90;;;;;;5058938;28;20192;-81
2022/10/24 01:45:50;;;;;;;0.00;0.00;;;13.20;99.90;;;;;;5057667;28;20186;-81
2022/10/24 01:48:20;;;;;;;0.10;0.10;;;13.20;99.90;;;;;;5060111;28;20174;-81
2022/10/24 01:50:48;;;;;;;0.10;0.10;;;13.20;99.90;;;;;;5059154;28;20182;-81
2022/10/24 01:53:14;;;;;;;0.10;0.10;;;13.20;99.90;;;;;;5059562;28;20280;-81
2022/10/24 01:55:41;;;;;;;0.10;0.10;;;13.20;99.90;;;;;;5061014;28;20201;-81
2022/10/24 01:58:07;;;;;;;0.00;0.00;;;13.20;99.90;;;;;;5060659;28;20183;-81
2022/10/24 02:00:33;;;;;;;0.10;0.10;;;13.30;99.90;;;;;;5061039;28;20220;-81
2022/10/24 02:03:21;;;;;;;0.10;0.10;;;13.30;99.90;;;;;;5059030;28;20695;-81
2022/10/24 02:05:53;;;;;;;0.00;0.00;;;13.30;99.90;;;;;;5059070;28;20277;-81
2022/10/24 02:08:27;;;;;;;0.10;0.10;;;13.40;99.90;;;;;;5060843;28;20650;-81
2022/10/24 02:10:58;;;;;;;0.10;0.10;;;13.40;99.90;;;;;;5067366;28;20182;-81
2022/10/24 02:13:41;;;;;;;0.00;0.00;;;13.40;99.90;;;;;;5059369;28;20197;-81
2022/10/24 02:16:07;;;;;;;0.10;0.10;;;13.40;99.90;;;;;;5077255;28;20182;-82
2022/10/24 02:18:34;;;;;;;0.00;0.00;;;13.30;99.90;;;;;;5070847;28;20192;-81
2022/10/24 02:21:12;;;;;;;0.10;0.10;;;13.20;99.90;;;;;;5062810;28;20216;-81
2022/10/24 02:23:37;;;;;;;0.10;0.10;;;13.20;99.90;;;;;;5074198;28;20231;-81
2022/10/24 02:26:10;;;;;;;0.10;0.10;;;13.10;99.90;;;;;;5080753;28;20189;-81
2022/10/24 02:28:42;;;;;;;0.10;0.10;;;13.10;99.90;;;;;;5065820;28;20672;-81
2022/10/24 02:31:15;;;;;;;0.10;0.10;;;13.10;99.90;;;;;;5064109;28;20253;-81
2022/10/24 02:33:42;;;;;;;0.10;0.10;;;13.00;99.90;;;;;;5063241;28;20246;-80
2022/10/24 02:36:10;;;;;;;0.10;0.10;;;13.00;99.90;;;;;;5064992;28;20205;-82
2022/10/24 02:38:39;;;;;;;0.00;0.00;;;13.00;99.90;;;;;;5059450;28;20617;-81
2022/10/24 02:41:10;;;;;;;0.07;0.07;;;12.90;99.90;;;;;;5057989;28;20309;-81
2022/10/24 02:43:37;;;;;;;0.10;0.10;;;12.90;99.90;;;;;;5061560;28;20199;-81
2022/10/24 02:46:05;;;;;;;0.10;0.10;;;12.90;99.90;;;;;;5063169;28;20196;-80
2022/10/24 02:48:36;;;;;;;0.10;0.10;;;13.00;99.90;;;;;;5081400;28;20236;-81
2022/10/24 02:51:02;;;;;;;0.10;0.10;;;13.10;99.90;;;;;;5081587;28;20201;-80
2022/10/24 02:53:28;;;;;;;0.10;0.10;;;13.10;99.90;;;;;;5062052;28;20200;-81
2022/10/24 02:55:54;;;;;;;0.10;0.10;;;13.00;99.90;;;;;;5063633;28;20195;-81
2022/10/24 02:58:19;;;;;;;0.10;0.10;;;13.00;99.90;;;;;;5063644;28;20193;-81
2022/10/24 03:00:45;;;;;;;0.10;0.10;;;13.00;99.90;;;;;;5066047;28;20197;-81
2022/10/24 03:03:11;;;;;;;0.10;0.10;;;12.90;99.90;;;;;;5064673;28;20594;-81
2022/10/24 03:05:36;;;;;;;0.10;0.10;;;12.90;99.90;;;;;;5062728;28;20240;-81
2022/10/24 03:08:02;;;;;;;0.10;0.10;;;12.90;99.90;;;;;;5064679;28;21176;-81
2022/10/24 03:10:28;;;;;;;0.10;0.10;;;12.90;99.90;;;;;;5063615;28;20531;-81
2022/10/24 03:12:54;;;;;;;0.10;0.10;;;12.90;99.90;;;;;;5062122;28;20232;-81
2022/10/24 03:15:20;;;;;;;0.10;0.10;;;12.90;99.90;;;;;;5057994;28;20207;-81
2022/10/24 03:17:48;;;;;;;0.10;0.10;;;12.90;99.90;;;;;;5062198;28;20193;-81
2022/10/24 03:20:14;;;;;;;0.00;0.00;;;12.90;99.90;;;;;;5060643;28;20213;-81
2022/10/24 03:22:39;;;;;;;0.10;0.10;;;12.90;99.90;;;;;;5062844;28;20205;-81
2022/10/24 03:25:05;;;;;;;0.10;0.10;;;12.90;99.90;;;;;;5060026;28;20538;-81
2022/10/24 03:27:35;;;;;;;0.00;0.00;;;12.90;99.90;;;;;;5061661;28;20633;-81
2022/10/24 03:30:00;;;;;;;0.10;0.10;;;12.90;99.90;;;;;;5070820;28;20189;-81
2022/10/24 03:32:26;;;;;;;0.10;0.10;;;12.80;99.90;;;;;;5062038;28;20213;-81
2022/10/24 03:34:52;;;;;;;0.10;0.10;;;12.80;99.90;;;;;;5062681;28;20551;-81
2022/10/24 03:37:17;;;;;;;0.10;0.10;;;12.80;99.90;;;;;;5063808;28;20592;-80
2022/10/24 03:39:43;;;;;;;0.00;0.00;;;12.90;99.90;;;;;;5060308;28;20844;-81
2022/10/24 03:42:09;;;;;;;0.10;0.10;;;12.90;99.90;;;;;;5061892;28;20212;-81
2022/10/24 03:44:34;;;;;;;0.10;0.10;;;12.90;99.90;;;;;;5072532;28;20181;-81
2022/10/24 03:47:00;;;;;;;0.10;0.10;;;13.00;99.90;;;;;;5072394;28;20182;-81
2022/10/24 03:49:26;;;;;;;0.10;0.10;;;13.00;99.90;;;;;;5064660;28;20196;-81
2022/10/24 03:51:51;;;;;;;0.10;0.10;;;13.00;99.90;;;;;;5062305;28;20210;-81
2022/10/24 03:54:17;;;;;;;0.10;0.10;;;13.10;99.90;;;;;;5063105;28;20576;-81
2022/10/24 03:56:43;;;;;;;0.10;0.10;;;13.10;99.90;;;;;;5061889;28;20181;-81
2022/10/24 03:59:09;;;;;;;0.10;0.10;;;13.00;99.90;;;;;;5058907;28;20188;-81
2022/10/24 04:01:35;;;;;;;0.10;0.10;;;13.10;99.90;;;;;;5063741;28;20208;-81
2022/10/24 04:04:00;;;;;;;0.10;0.10;;;13.10;99.90;;;;;;5061450;28;20276;-81
2022/10/24 04:06:26;;;;;;;0.10;0.10;;;13.00;99.90;;;;;;5062663;28;20187;-81
2022/10/24 04:08:51;;;;;;;0.10;0.10;;;12.90;99.90;;;;;;5059379;28;20177;-81
2022/10/24 04:11:17;;;;;;;0.00;0.00;;;12.80;99.90;;;;;;5064532;28;20201;-81
2022/10/24 04:13:43;;;;;;;0.10;0.10;;;12.70;99.90;;;;;;5060856;28;20186;-81
2022/10/24 04:16:08;;;;;;;0.10;0.10;;;12.80;99.90;;;;;;5063284;28;20949;-83
2022/10/24 04:18:34;;;;;;;0.10;0.10;;;12.90;99.90;;;;;;5063308;28;20809;-81
2022/10/24 04:21:00;;;;;;;0.10;0.10;;;13.00;99.90;;;;;;5060931;28;20932;-81
2022/10/24 04:23:26;;;;;;;0.10;0.10;;;13.10;99.90;;;;;;5060586;28;20198;-80
2022/10/24 04:25:52;;;;;;;0.10;0.10;;;13.00;99.90;;;;;;5061501;28;20219;-81
2022/10/24 04:28:18;;;;;;;0.10;0.10;;;13.00;99.90;;;;;;5063392;28;20237;-81
2022/10/24 04:30:44;;;;;;;0.10;0.10;;;13.00;99.90;;;;;;5063413;28;20609;-81
2022/10/24 04:33:09;;;;;;;0.00;0.00;;;13.10;99.90;;;;;;5061844;28;20192;-82
2022/10/24 04:35:35;;;;;;;0.10;0.10;;;13.10;99.90;;;;;;5061679;28;20708;-81
2022/10/24 04:38:01;;;;;;;0.10;0.10;;;13.10;99.90;;;;;;5057841;28;20200;-81
2022/10/24 04:40:26;;;;;;;0.10;0.10;;;13.10;99.90;;;;;;5059926;28;20217;-81
2022/10/24 04:42:52;;;;;;;0.03;0.03;;;13.10;99.90;;;;;;5059764;28;20233;-81
2022/10/24 04:45:17;;;;;;;0.10;0.10;;;13.00;99.90;;;;;;5059727;28;20189;-81
2022/10/24 04:47:43;;;;;;;0.10;0.10;;;13.10;99.90;;;;;;5063365;28;20205;-82
2022/10/24 04:50:09;;;;;;;0.10;0.10;;;13.20;99.90;;;;;;5062073;28;20704;-82
2022/10/24 04:52:34;;;;;;;0.07;0.07;;;13.20;99.90;;;;;;5060912;28;20319;-82
2022/10/24 04:55:00;;;;;;;0.10;0.10;;;13.30;99.90;;;;;;5060341;28;20665;-81
2022/10/24 04:57:25;;;;;;;0.00;0.00;;;13.30;99.90;;;;;;5061750;28;20217;-81
2022/10/24 04:59:51;;;;;;;0.10;0.10;;;13.30;99.90;;;;;;5062200;28;20203;-81
2022/10/24 05:02:16;;;;;;;0.10;0.10;;;13.20;99.90;;;;;;5060531;28;20204;-80
2022/10/24 05:04:42;;;;;;;0.10;0.10;;;13.20;99.90;;;;;;5063393;28;20625;-81
2022/10/24 05:07:08;;;;;;;0.10;0.10;;;13.20;99.90;;;;;;5060489;28;20181;-79
2022/10/24 05:09:33;;;;;;;0.10;0.10;;;13.20;99.90;;;;;;5060520;28;20254;-79
2022/10/24 05:11:59;;;;;;;0.00;0.00;;;13.20;99.90;;;;;;5056874;28;20722;-79
2022/10/24 05:14:25;;;;;;;0.10;0.10;;;13.10;99.90;;;;;;5058348;28;20527;-80
2022/10/24 05:16:50;;;;;;;0.10;0.10;;;13.10;99.90;;;;;;5055836;28;20859;-81
2022/10/24 05:19:16;;;;;;;0.10;0.10;;;13.20;99.90;;;;;;5074383;28;20664;-79
2022/10/24 05:21:42;;;;;;;0.10;0.10;;;13.20;99.90;;;;;;5074493;28;20694;-79
2022/10/24 05:24:08;;;;;;;0.00;0.00;;;13.20;99.90;;;;;;5058779;28;20198;-78
2022/10/24 05:26:34;;;;;;;0.07;0.07;;;13.10;99.90;;;;;;5057602;28;20190;-79
2022/10/24 05:28:59;;;;;;;0.10;0.10;;;13.10;99.90;;;;;;5054687;28;20185;-79
2022/10/24 05:31:25;;;;;;;0.10;0.10;;;13.10;99.90;;;;;;5058369;28;20208;-78
2022/10/24 05:33:50;;;;;;;0.00;0.00;;;13.00;99.90;;;;;;5074548;28;20201;-79
2022/10/24 05:36:16;;;;;;;0.00;0.00;;;12.90;99.90;;;;;;5059084;28;20193;-78
2022/10/24 05:38:41;;;;;;;0.10;0.10;;;12.90;99.90;;;;;;5063274;28;20212;-79
2022/10/24 05:41:07;;;;;;;0.10;0.10;;;12.90;99.90;;;;;;5061224;28;21067;-78
2022/10/24 05:43:33;;;;;;;0.00;0.00;;;12.90;99.90;;;;;;5061422;28;20658;-79
2022/10/24 05:45:58;;;;;;;0.03;0.03;;;12.90;99.90;;;;;;5056268;28;20185;-80
2022/10/24 05:48:24;;;;;;;0.10;0.10;;;12.90;99.90;;;;;;5061928;28;20184;-79
2022/10/24 05:50:49;;;;;;;0.00;0.00;;;12.90;99.90;;;;;;5062668;28;20191;-79
2022/10/24 05:53:15;;;;;;;0.10;0.10;;;12.90;99.90;;;;;;5062004;28;20193;-79
2022/10/24 05:55:41;;;;;;;0.10;0.10;;;13.00;99.90;;;;;;5063930;28;20211;-80
2022/10/24 05:58:06;;;;;;;0.10;0.10;;;13.00;99.90;;;;;;5069756;28;20185;-80
2022/10/24 06:00:32;;;;;;;0.10;0.10;;;12.80;99.90;;;;;;5070249;28;20235;-79
2022/10/24 06:02:59;;;;;;;0.10;0.10;;;12.60;99.90;;;;;;5067193;28;20280;-79
2022/10/24 06:05:25;;;;;;;0.10;0.10;;;12.70;99.90;;;;;;5063139;28;20625;-79
2022/10/24 06:07:51;;;;;;;0.03;0.03;;;12.80;99.90;;;;;;5063778;28;20224;-79
2022/10/24 06:10:16;;;;;;;0.07;0.07;;;12.80;99.90;;;;;;5075063;28;20718;-79
2022/10/24 06:12:42;;;;;;;0.10;0.10;;;12.90;99.90;;;;;;5060643;28;20777;-79
2022/10/24 06:15:08;;;;;;;0.10;0.10;;;13.00;99.90;;;;;;5065069;28;20900;-79
2022/10/24 06:17:34;;;;;;;0.10;0.10;;;13.00;99.90;;;;;;5064142;28;20184;-80
2022/10/24 06:19:59;;;;;;;0.10;0.10;;;13.20;99.90;;;;;;5066658;28;20182;-79
2022/10/24 06:22:26;;;;;;;0.10;0.10;;;13.20;99.90;;;;;;5064206;28;20686;-80
2022/10/24 06:24:52;;;;;;;0.10;0.10;;;13.30;99.90;;;;;;5066378;28;20192;-79
2022/10/24 06:27:18;;;;;;;0.10;0.10;;;13.20;99.90;;;;;;5065409;28;20182;-81
2022/10/24 06:29:44;;;;;;;0.10;0.10;;;13.30;99.90;;;;;;5065149;28;20194;-80
2022/10/24 06:32:09;;;;;;;0.10;0.10;;;13.40;99.90;;;;;;5065673;28;20208;-80
2022/10/24 06:34:35;;;;;;;0.10;0.10;;;13.30;99.90;;;;;;5063654;28;20706;-79
2022/10/24 06:37:01;;;;;;;0.10;0.10;;;13.20;99.90;;;;;;5059982;28;20197;-80
2022/10/24 06:39:27;;;;;;;0.10;0.10;;;13.20;99.90;;;;;;5062322;28;20201;-80
2022/10/24 06:41:52;;;;;;;0.10;0.10;;;13.30;99.90;;;;;;5058513;28;20213;-79
2022/10/24 06:44:18;;;;;;;0.10;0.10;;;13.30;99.90;;;;;;5061603;28;20272;-79
2022/10/24 06:46:44;;;;;;;0.10;0.10;;;13.40;99.90;;;;;;5063729;28;20652;-80
2022/10/24 06:49:11;;;;;;;0.10;0.10;;;13.40;99.90;;;;;;5061578;28;21152;-79
2022/10/24 06:51:37;;;;;;;0.10;0.10;;;13.40;99.90;;;;;;5062245;28;20213;-79
2022/10/24 06:54:03;;;;;;;0.10;0.10;;;13.40;99.90;;;;;;5061273;28;20199;-80
2022/10/24 06:56:28;;;;;;;0.10;0.10;;;13.40;99.90;;;;;;5059881;28;20563;-79
2022/10/24 06:58:54;;;;;;;0.10;0.10;;;13.40;99.90;;;;;;5060413;28;20242;-80
2022/10/24 07:01:21;;;;;;;0.10;0.10;;;13.60;99.90;;;;;;5062292;28;20226;-80
2022/10/24 07:03:47;;;;;;;0.10;0.10;;;13.70;99.90;;;;;;5069406;28;20271;-80
2022/10/24 07:06:17;;;;;;;0.10;0.10;;;13.70;99.90;;;;;;5075611;28;20269;-81
2022/10/24 07:08:43;;;;;;;0.10;0.10;;;13.60;99.90;;;;;;5054595;28;20272;-82
2022/10/24 07:11:09;;;;;;;0.10;0.10;;;13.50;99.90;;;;;;5061508;28;20198;-82
2022/10/24 07:13:35;;;;;;;0.10;0.10;;;13.50;99.90;;;;;;5060411;28;20194;-82
2022/10/24 07:16:00;;;;;;;0.10;0.10;;;13.50;99.90;;;;;;5071280;28;20188;-81
2022/10/24 07:18:26;;;;;;;0.10;0.10;;;13.50;99.90;;;;;;5060188;28;20714;-81
2022/10/24 07:20:51;;;;;;;0.00;0.00;;;13.60;99.90;;;;;;5059384;28;20691;-82
2022/10/24 07:23:17;;;;;;;0.10;0.10;;;13.60;99.90;;;;;;5060713;28;20181;-83
2022/10/24 07:25:44;;;;;;;0.10;0.10;;;13.60;99.90;;;;;;5061819;28;20190;-82
2022/10/24 07:28:10;;;;;;;0.10;0.10;;;13.60;99.90;;;;;;5056439;28;20194;-83
2022/10/24 07:30:37;;;;;;;0.10;0.10;;;13.60;99.90;;;;;;5059689;28;20690;-83
2022/10/24 07:33:03;;;;;;;0.10;0.10;;;13.60;99.90;;;;;;5071884;28;20186;-82
2022/10/24 07:35:28;;;;;;;0.10;0.10;;;13.60;99.90;;;;;;5077039;28;20746;-81
2022/10/24 07:37:54;;;;;;;0.10;0.10;;;13.70;99.90;;;;;;5056413;28;20271;-81
2022/10/24 07:40:19;;;;;;;0.10;0.10;;;13.80;99.90;;;;;;5057237;28;20292;-82
2022/10/24 07:42:45;;;;;;;0.10;0.10;;;13.80;99.90;;;;;;5064108;28;20201;-81
2022/10/24 07:45:11;;;;;;;0.00;0.00;;;13.80;99.90;;;;;;5061978;28;20178;-81
2022/10/24 07:47:37;;;;;;;0.10;0.10;;;13.90;99.90;;;;;;5063585;28;20177;-81
2022/10/24 07:50:04;;;;;;;0.00;0.00;;;13.90;99.90;;;;;;5079500;28;20188;-81
2022/10/24 07:52:30;;;;;;;0.10;0.10;;;14.00;99.90;;;;;;5061131;28;20236;-80
2022/10/24 07:54:56;;;;;;;0.10;0.10;;;14.10;99.90;;;;;;5061195;28;20213;-81
2022/10/24 07:57:22;;;;;;;0.10;0.10;;;14.20;99.90;;;;;;5057491;28;20230;-82
2022/10/24 07:59:48;;;;;;;0.10;0.10;;;14.30;99.90;;;;;;5062164;28;20176;-82
2022/10/24 08:02:14;;;;;;;0.10;0.10;;;14.20;99.90;;;;;;5060332;28;20581;-82
2022/10/24 08:04:40;;;;;;;0.10;0.10;;;14.30;99.90;;;;;;5062940;28;20173;-81
2022/10/24 08:07:12;;;;;;;0.10;0.10;;;14.40;99.90;;;;;;5060901;28;20544;-82
2022/10/24 08:09:47;;;;;;;0.10;0.10;;;14.40;99.90;;;;;;5080094;28;20266;-81
2022/10/24 08:12:12;;;;;;;0.10;0.10;;;14.40;99.90;;;;;;5071177;28;20228;-82
2022/10/24 08:14:39;;;;;;;0.10;0.10;;;14.60;99.90;;;;;;5063146;28;20190;-82
2022/10/24 08:17:05;;;;;;;0.10;0.10;;;14.60;99.90;;;;;;5063684;28;20275;-82
2022/10/24 08:19:31;;;;;;;0.10;0.10;;;14.60;99.90;;;;;;5062070;28;20303;-81
2022/10/24 08:21:57;;;;;;;0.10;0.10;;;14.60;99.90;;;;;;5063526;28;20700;-82
2022/10/24 08:24:23;;;;;;;0.10;0.10;;;14.70;99.90;;;;;;5062992;28;20180;-82
2022/10/24 08:26:48;;;;;;;0.10;0.10;;;14.60;99.90;;;;;;5061828;28;20188;-82
2022/10/24 08:29:20;;;;;;;0.10;0.10;;;14.70;99.90;;;;;;5062815;28;20192;-81
2022/10/24 08:31:49;;;;;;;0.40;0.40;;;14.70;99.90;;;;;;5062591;28;20223;-82
2022/10/24 08:34:15;;;;;;;0.10;0.10;;;14.80;99.90;;;;;;5063038;28;20232;-82
2022/10/24 08:36:41;;;;;;;0.10;0.10;;;14.80;99.90;;;;;;5060918;28;20315;-82
2022/10/24 08:39:07;;;;;;;0.10;0.10;;;14.90;99.90;;;;;;5062691;28;20275;-81
2022/10/24 08:42:00;;;;;;;0.10;0.10;;;15.00;99.90;;;;;;5062347;28;20224;-82
2022/10/24 08:44:31;;;;;;;0.10;0.10;;;15.10;99.90;;;;;;5060964;28;20191;-82
2022/10/24 08:47:08;;;;;;;0.10;0.10;;;15.10;99.90;;;;;;5072420;28;20261;-82
2022/10/24 08:49:48;;;;;;;0.10;0.10;;;15.20;99.90;;;;;;5079227;28;20184;-82
2022/10/24 08:52:32;;;;;;;0.10;0.10;;;15.20;99.90;;;;;;5069300;28;20269;-81
2022/10/24 08:55:12;;;;;;;0.10;0.10;;;15.30;99.90;;;;;;5061883;28;20190;-82
2022/10/24 08:57:38;;;;;;;0.10;0.10;;;15.40;99.90;;;;;;5062323;28;20256;-82
2022/10/24 09:00:16;;;;;;;0.10;0.10;;;15.50;99.90;;;;;;5062876;28;20266;-82
2022/10/24 09:02:44;;;;;;;0.10;0.10;;;15.60;99.90;;;;;;5069752;28;20215;-82
2022/10/24 09:05:21;;;;;;;0.10;0.10;;;15.70;99.90;;;;;;5069400;28;20187;-82
2022/10/24 09:07:50;;;;;;;0.10;0.10;;;15.80;99.90;;;;;;5062444;28;20180;-82
2022/10/24 09:10:22;;;;;;;0.20;0.20;;;15.90;99.90;;;;;;5061706;28;20184;-81
2022/10/24 09:12:48;;;;;;;0.10;0.10;;;16.30;99.90;;;;;;5061195;28;20203;-82
2022/10/24 09:15:23;;;;;;;0.10;0.10;;;16.40;99.90;;;;;;5062490;28;20177;-82
2022/10/24 09:17:49;;;;;;;0.20;0.20;;;16.50;99.90;;;;;;5058172;28;20180;-81
2022/10/24 09:20:28;;;;;;;0.10;0.10;;;16.90;99.90;;;;;;5061453;28;20185;-82
2022/10/24 09:22:57;;;;;;;0.10;0.10;;;17.30;99.90;;;;;;5071768;28;20531;-82
2022/10/24 09:25:30;;;;;;;0.10;0.10;;;17.40;99.90;;;;;;5064529;28;20180;-82
2022/10/24 09:27:57;;;;;;;0.10;0.10;;;17.40;99.90;;;;;;5078464;28;21050;-83
2022/10/24 09:30:26;;;;;;;0.00;0.00;;;17.60;99.90;;;;;;5068158;28;20204;-82
2022/10/24 09:32:57;;;;;;;0.10;0.10;;;18.10;99.90;;;;;;5064251;28;20231;-83
2022/10/24 09:35:28;;;;;;;0.10;0.10;;;18.30;99.90;;;;;;5062275;28;20185;-83
2022/10/24 09:37:56;;;;;;;0.10;0.10;;;18.00;99.90;;;;;;5061027;28;20173;-83
2022/10/24 09:40:25;;;;;;;0.10;0.10;;;17.90;99.90;;;;;;5082996;28;20242;-83
2022/10/24 09:43:10;;;;;;;0.10;0.10;;;17.80;99.90;;;;;;5064438;28;20208;-82
2022/10/24 09:45:47;;;;;;;0.10;0.10;;;17.40;99.90;;;;;;5065558;28;20238;-82
2022/10/24 09:48:37;;;;;;;0.10;0.10;;;17.40;99.90;;;;;;5063290;28;20276;-82
2022/10/24 09:51:05;;;;;;;0.10;0.10;;;17.40;99.90;;;;;;5063738;28;20205;-83
2022/10/24 09:53:38;;;;;;;0.10;0.10;;;17.50;99.90;;;;;;5057496;28;20211;-82
2022/10/24 09:56:10;;;;;;;0.10;0.10;;;17.70;99.90;;;;;;5065125;28;20230;-83
2022/10/24 09:58:36;;;;;;;0.10;0.10;;;17.90;99.90;;;;;;5064746;28;20185;-83
2022/10/24 10:01:21;;;;;;;0.10;0.10;;;17.90;99.90;;;;;;5076256;28;20566;-83
2022/10/24 10:04:02;;;;;;;0.10;0.10;;;18.20;99.90;;;;;;5073943;28;20181;-85
2022/10/24 10:06:32;;;;;;;0.10;0.10;;;18.70;99.90;;;;;;5081824;28;20296;-85
2022/10/24 10:08:59;;;;;;;0.10;0.10;;;19.00;99.90;;;;;;5065053;28;20666;-85
2022/10/24 10:11:31;;;;;;;0.10;0.10;;;19.00;99.90;;;;;;5080820;28;20217;-85
2022/10/24 10:14:00;;;;;;;0.10;0.10;;;18.70;99.90;;;;;;5073955;28;20181;-81
2022/10/24 10:16:35;;;;;;;0.10;0.10;;;18.70;99.90;;;;;;5072865;28;20197;-84
2022/10/24 10:19:14;;;;;;;0.10;0.10;;;19.00;99.90;;;;;;5066470;28;20405;-83
2022/10/24 10:22:01;;;;;;;0.10;0.10;;;19.10;99.90;;;;;;5062855;28;20219;-83
2022/10/24 10:24:38;;;;;;;0.10;0.10;;;19.30;99.90;;;;;;5064753;28;20190;-84
2022/10/24 10:27:24;;;;;;;0.10;0.10;;;19.70;99.90;;;;;;5065626;28;20229;-83
2022/10/24 10:30:15;;;;;;;0.10;0.10;;;20.00;99.90;;;;;;5065893;28;20618;-84
2022/10/24 10:32:55;;;;;;;0.10;0.10;;;20.30;99.90;;;;;;5074398;28;20205;-83
2022/10/24 10:35:43;;;;;;;0.10;0.10;;;20.30;99.90;;;;;;5068318;28;20182;-83
2022/10/24 10:38:43;;;;;;;0.10;0.10;;;20.30;99.90;;;;;;5066065;28;20185;-82
2022/10/24 10:41:14;;;;;;;0.10;0.10;;;20.70;99.90;;;;;;5072494;28;20238;-83
2022/10/24 10:43:58;;;;;;;0.10;0.10;;;20.80;99.90;;;;;;5069093;28;20245;-83
2022/10/24 10:46:41;;;;;;;0.10;0.10;;;21.10;99.90;;;;;;5070692;28;20256;-83
2022/10/24 10:49:12;;;;;;;0.10;0.10;;;21.20;99.90;;;;;;5074074;28;20181;-82
2022/10/24 10:51:48;;;;;;;0.10;0.10;;;21.20;99.90;;;;;;5085927;28;20209;-83
2022/10/24 10:54:45;;;;;;;0.10;0.10;;;21.30;99.90;;;;;;5066925;28;20209;-83
2022/10/24 10:57:12;;;;;;;0.20;0.20;;;21.40;99.90;;;;;;5087395;28;20194;-82
2022/10/24 10:59:44;;;;;;;0.10;0.10;;;21.10;99.90;;;;;;5083327;28;20185;-83
2022/10/24 11:02:34;;;;;;;0.10;0.10;;;21.00;99.90;;;;;;5078563;28;20217;-82
2022/10/24 11:05:22;;;;;;;0.10;0.10;;;21.10;99.90;;;;;;5081367;28;20177;-83
2022/10/24 11:08:03;;;;;;;0.10;0.10;;;21.00;99.90;;;;;;5070907;28;20191;-83
2022/10/24 11:10:36;;;;;;;0.10;0.10;;;20.90;99.90;;;;;;5080644;28;20189;-83
2022/10/24 11:13:08;;;;;;;0.10;0.10;;;20.60;99.90;;;;;;5079264;28;20213;-83
2022/10/24 11:15:41;;;;;;;0.10;0.10;;;20.40;99.90;;;;;;5073936;28;20622;-82
2022/10/24 11:18:12;;;;;;;0.10;0.10;;;20.30;99.90;;;;;;5071346;28;20185;-83
2022/10/24 11:20:50;;;;;;;0.10;0.10;;;20.20;99.90;;;;;;5071536;28;20211;-83
2022/10/24 11:23:18;;;;;;;0.10;0.10;;;20.10;99.90;;;;;;5079976;28;20661;-82
2022/10/24 11:26:14;;;;;;;0.10;0.10;;;20.00;99.90;;;;;;5071974;28;20189;-83
2022/10/24 11:29:00;;;;;;;0.10;0.10;;;20.00;99.90;;;;;;5084651;28;20277;-83
2022/10/24 11:31:48;;;;;;;0.10;0.10;;;20.10;99.90;;;;;;5081469;28;20197;-83
2022/10/24 11:34:21;;;;;;;0.10;0.10;;;20.10;99.90;;;;;;5075287;28;20177;-83
2022/10/24 11:36:58;;;;;;;0.10;0.10;;;20.00;99.90;;;;;;5069387;28;20198;-84
2022/10/24 11:39:24;;;;;;;0.10;0.10;;;20.50;99.90;;;;;;5083619;28;20212;-81
2022/10/24 11:42:04;;;;;;;0.10;0.10;;;21.00;99.90;;;;;;5078288;28;20208;-82
2022/10/24 11:44:52;;;;;;;0.10;0.10;;;21.40;99.90;;;;;;5069713;28;20188;-83
2022/10/24 11:47:23;;;;;;;0.10;0.10;;;21.60;99.90;;;;;;5080041;28;20545;-83
2022/10/24 11:50:02;;;;;;;0.10;0.10;;;21.70;99.90;;;;;;5079952;28;20689;-82
2022/10/24 11:52:32;;;;;;;0.10;0.10;;;21.80;99.90;;;;;;5067077;28;20209;-82
2022/10/24 11:55:23;;;;;;;0.10;0.10;;;21.80;99.90;;;;;;5067041;28;20196;-82
2022/10/24 11:57:56;;;;;;;0.10;0.10;;;21.70;99.90;;;;;;5070824;28;20181;-82
2022/10/24 12:00:32;;;;;;;0.10;0.10;;;21.90;99.90;;;;;;5068279;28;20185;-82
2022/10/24 12:03:23;;;;;;;0.10;0.10;;;21.70;99.90;;;;;;5067261;28;20624;-82
2022/10/24 12:06:04;;;;;;;0.10;0.10;;;21.60;99.90;;;;;;5071613;28;20177;-83
2022/10/24 12:08:48;;;;;;;0.10;0.10;;;21.40;99.90;;;;;;5079075;28;20214;-83
2022/10/24 12:11:42;;;;;;;0.10;0.10;;;21.40;99.90;;;;;;5070501;28;20209;-82
2022/10/24 12:14:34;;;;;;;0.10;0.10;;;21.60;99.90;;;;;;5079698;28;20281;-82
2022/10/24 12:17:12;;;;;;;0.10;0.10;;;21.40;99.90;;;;;;5069325;28;20737;-82
2022/10/24 12:19:40;;;;;;;0.10;0.10;;;21.40;99.90;;;;;;5078667;28;20188;-83
2022/10/24 12:22:12;;;;;;;0.10;0.10;;;21.50;99.90;;;;;;5065265;28;20209;-82
2022/10/24 12:24:37;;;;;;;0.10;0.10;;;21.40;99.90;;;;;;5066972;28;20196;-82
2022/10/24 12:27:38;;;;;;;0.10;0.10;;;21.60;99.90;;;;;;5085835;28;20182;-82
2022/10/24 12:30:15;;;;;;;0.10;0.10;;;21.70;99.90;;;;;;5077578;28;20189;-82
2022/10/24 12:32:52;;;;;;;0.10;0.10;;;21.90;99.90;;;;;;5077483;28;20208;-82
2022/10/24 12:35:29;;;;;;;0.10;0.10;;;21.70;99.90;;;;;;5074975;28;20291;-83
2022/10/24 12:37:55;;;;;;;0.10;0.10;;;21.70;99.90;;;;;;5067386;28;20680;-82
2022/10/24 12:40:47;;;;;;;0.10;0.10;;;21.70;99.90;;;;;;5066458;28;20196;-83
2022/10/24 12:43:31;;;;;;;0.10;0.10;;;21.70;99.90;;;;;;5064174;28;20181;-82
2022/10/24 12:46:00;;;;;;;0.10;0.10;;;21.60;99.90;;;;;;5076214;28;20192;-83
2022/10/24 12:48:34;;;;;;;0.10;0.10;;;21.50;99.90;;;;;;5062798;28;20197;-83
2022/10/24 12:51:19;;;;;;;0.10;0.10;;;21.50;99.90;;;;;;5071834;28;20263;-83
2022/10/24 12:54:26;;;;;;;0.10;0.10;;;21.60;99.90;;;;;;5086085;28;20204;-82
2022/10/24 12:56:51;;;;;;;0.10;0.10;;;21.90;99.90;;;;;;5060258;28;20193;-82
2022/10/24 12:59:24;;;;;;;0.10;0.10;;;22.00;99.90;;;;;;5081269;28;20254;-82
2022/10/24 13:02:06;;;;;;;0.10;0.10;;;21.80;99.90;;;;;;5066028;28;20213;-82
2022/10/24 13:05:05;;;;;;;0.10;0.10;;;21.60;99.90;;;;;;5082918;28;20215;-83
2022/10/24 13:07:45;;;;;;;0.10;0.10;;;21.50;99.90;;;;;;5073786;28;20189;-82